Time;durP1;ratioP1;P1;durP2;ratioP2;P2;SDS_P1;SDS_P2;PMS_P1;PMS_P2;Temp;Humidity;BMP_temperature;BMP_pressure;BME280_temperature;BME280_humidity;BME280_pressure;Samples;Min_cycle;Max_cycle;Signal;HPM_P1;HPM_P2
2023/12/20 00:01:36;;;;;;;10.25;3.42;;;;;;;;;;5049501;28;20122;-65
2023/12/20 00:04:03;;;;;;;12.75;2.45;;;;;;;;;;5048702;28;20091;-66
2023/12/20 00:06:28;;;;;;;9.63;2.60;;;;;;;;;;5048296;28;20036;-65
2023/12/20 00:08:54;;;;;;;10.30;2.03;;;;;;;;;;5039037;28;20497;-65
2023/12/20 00:11:20;;;;;;;9.63;3.95;;;;;;;;;;5041003;28;20120;-65
2023/12/20 00:13:47;;;;;;;10.75;3.17;;;;;;;;;;5046377;28;20033;-66
2023/12/20 00:16:13;;;;;;;10.00;2.15;;;;;;;;;;5042204;28;20037;-65
2023/12/20 00:18:39;;;;;;;11.05;2.50;;;;;;;;;;5032956;28;20056;-66
2023/12/20 00:21:05;;;;;;;9.88;2.20;;;;;;;;;;5033835;28;20045;-66
2023/12/20 00:23:31;;;;;;;10.32;1.80;;;;;;;;;;5037129;28;20390;-66
2023/12/20 00:25:57;;;;;;;14.02;2.22;;;;;;;;;;5039648;28;20463;-66
2023/12/20 00:28:23;;;;;;;9.57;2.85;;;;;;;;;;5041472;28;20116;-65
2023/12/20 00:30:49;;;;;;;9.98;2.50;;;;;;;;;;5050118;28;20120;-66
2023/12/20 00:33:15;;;;;;;12.98;4.38;;;;;;;;;;5052784;28;20443;-66
2023/12/20 00:35:41;;;;;;;11.45;2.40;;;;;;;;;;5053594;28;20037;-66
2023/12/20 00:38:08;;;;;;;10.65;2.05;;;;;;;;;;5052750;28;20063;-66
2023/12/20 00:40:34;;;;;;;8.73;1.80;;;;;;;;;;5053204;28;20515;-66
2023/12/20 00:43:00;;;;;;;11.32;2.00;;;;;;;;;;5052573;28;20053;-67
2023/12/20 00:45:26;;;;;;;11.45;2.35;;;;;;;;;;5052750;28;20397;-65
2023/12/20 00:47:52;;;;;;;15.43;2.05;;;;;;;;;;5053586;28;20044;-66
2023/12/20 00:50:18;;;;;;;9.38;2.03;;;;;;;;;;5052212;28;20382;-66
2023/12/20 00:52:44;;;;;;;12.77;2.33;;;;;;;;;;5051982;28;20040;-66
2023/12/20 00:55:10;;;;;;;10.25;1.98;;;;;;;;;;5053257;28;20040;-66
2023/12/20 00:57:36;;;;;;;9.82;1.98;;;;;;;;;;5048865;28;20042;-66
2023/12/20 01:00:02;;;;;;;11.40;1.80;;;;;;;;;;5043132;28;20404;-66
2023/12/20 01:02:29;;;;;;;13.40;2.40;;;;;;;;;;5044434;28;20044;-66
2023/12/20 01:04:55;;;;;;;16.38;2.50;;;;;;;;;;5051703;28;20063;-66
2023/12/20 01:07:21;;;;;;;11.30;1.90;;;;;;;;;;5053273;28;20037;-66
2023/12/20 01:09:47;;;;;;;9.40;1.63;;;;;;;;;;5041941;28;20060;-66
2023/12/20 01:12:13;;;;;;;9.35;1.95;;;;;;;;;;5045329;28;20029;-66
2023/12/20 01:14:39;;;;;;;11.30;2.15;;;;;;;;;;5051438;28;20045;-65
2023/12/20 01:17:05;;;;;;;13.00;2.42;;;;;;;;;;5046092;28;20045;-66
2023/12/20 01:19:31;;;;;;;13.88;2.30;;;;;;;;;;5044759;28;20072;-65
2023/12/20 01:21:57;;;;;;;12.18;2.25;;;;;;;;;;5049405;28;20103;-66
2023/12/20 01:24:23;;;;;;;17.42;2.33;;;;;;;;;;5046954;28;20049;-66
2023/12/20 01:26:49;;;;;;;13.18;2.00;;;;;;;;;;5052723;28;20044;-66
2023/12/20 01:29:15;;;;;;;12.88;2.42;;;;;;;;;;5048703;28;20044;-65
2023/12/20 01:31:41;;;;;;;11.60;1.95;;;;;;;;;;5048965;28;20040;-66
2023/12/20 01:34:07;;;;;;;14.73;2.53;;;;;;;;;;5038967;28;20037;-66
2023/12/20 01:36:33;;;;;;;17.85;2.42;;;;;;;;;;5038515;28;20623;-66
2023/12/20 01:38:59;;;;;;;12.43;2.70;;;;;;;;;;5036337;28;20041;-66
2023/12/20 01:41:25;;;;;;;18.27;2.97;;;;;;;;;;5034198;28;20122;-66
2023/12/20 01:43:53;;;;;;;15.98;2.30;;;;;;;;;;5044004;28;20033;-65
2023/12/20 01:46:19;;;;;;;15.18;2.47;;;;;;;;;;5051365;28;20068;-66
2023/12/20 01:48:45;;;;;;;18.15;2.75;;;;;;;;;;5050609;28;20056;-65
2023/12/20 01:51:11;;;;;;;13.27;2.30;;;;;;;;;;5052476;28;20107;-66
2023/12/20 01:53:38;;;;;;;8.50;2.42;;;;;;;;;;5050656;28;20045;-66
2023/12/20 01:56:05;;;;;;;14.63;2.30;;;;;;;;;;5050387;28;20106;-65
2023/12/20 01:58:31;;;;;;;15.05;2.60;;;;;;;;;;5048371;28;20047;-66
2023/12/20 02:00:58;;;;;;;13.27;2.25;;;;;;;;;;5052295;28;20083;-65
2023/12/20 02:03:24;;;;;;;12.88;2.40;;;;;;;;;;5049489;28;20045;-66
2023/12/20 02:05:50;;;;;;;17.55;2.45;;;;;;;;;;5050851;28;20527;-65
2023/12/20 02:08:16;;;;;;;13.48;2.33;;;;;;;;;;5052196;28;20509;-66
2023/12/20 02:10:42;;;;;;;14.20;3.33;;;;;;;;;;5048364;28;20032;-66
2023/12/20 02:13:08;;;;;;;16.40;2.80;;;;;;;;;;5051342;28;20039;-66
2023/12/20 02:15:37;;;;;;;11.40;2.42;;;;;;;;;;5050638;28;20405;-66
2023/12/20 02:18:03;;;;;;;13.15;2.60;;;;;;;;;;5051404;28;20075;-67
2023/12/20 02:20:29;;;;;;;14.73;2.53;;;;;;;;;;5049293;28;20072;-68
2023/12/20 02:22:55;;;;;;;12.00;2.78;;;;;;;;;;5047489;28;20088;-68
2023/12/20 02:25:21;;;;;;;12.80;2.83;;;;;;;;;;5050395;28;20412;-67
2023/12/20 02:27:47;;;;;;;21.10;2.95;;;;;;;;;;5047210;28;20041;-68
2023/12/20 02:30:13;;;;;;;16.45;2.67;;;;;;;;;;5050398;28;20040;-68
2023/12/20 02:32:39;;;;;;;16.80;3.15;;;;;;;;;;5051333;28;20377;-67
2023/12/20 02:35:06;;;;;;;16.05;2.60;;;;;;;;;;5046069;28;20045;-67
2023/12/20 02:37:33;;;;;;;12.85;2.63;;;;;;;;;;5050453;28;20522;-66
2023/12/20 02:39:59;;;;;;;11.65;2.35;;;;;;;;;;5050374;28;20072;-66
2023/12/20 02:42:25;;;;;;;19.95;3.65;;;;;;;;;;5049923;28;20076;-66
2023/12/20 02:44:51;;;;;;;12.88;2.67;;;;;;;;;;5050349;28;20041;-67
2023/12/20 02:47:17;;;;;;;15.50;2.90;;;;;;;;;;5051235;28;20029;-66
2023/12/20 02:49:43;;;;;;;12.57;2.78;;;;;;;;;;5049797;28;20044;-67
2023/12/20 02:52:09;;;;;;;11.82;2.53;;;;;;;;;;5050822;28;20033;-66
2023/12/20 02:54:35;;;;;;;15.93;3.20;;;;;;;;;;5050826;28;20377;-65
2023/12/20 02:57:01;;;;;;;17.42;3.05;;;;;;;;;;5046464;28;20080;-65
2023/12/20 02:59:27;;;;;;;12.82;2.47;;;;;;;;;;5050204;28;20040;-66
2023/12/20 03:01:53;;;;;;;10.85;2.55;;;;;;;;;;5046520;28;20033;-67
2023/12/20 03:04:19;;;;;;;15.75;2.90;;;;;;;;;;5046007;28;20662;-66
2023/12/20 03:06:45;;;;;;;11.55;2.67;;;;;;;;;;5044042;28;20124;-66
2023/12/20 03:09:11;;;;;;;11.50;2.80;;;;;;;;;;5050654;28;20040;-66
2023/12/20 03:11:37;;;;;;;14.15;3.45;;;;;;;;;;5051156;28;20397;-66
2023/12/20 03:14:03;;;;;;;11.60;2.30;;;;;;;;;;5045812;28;20079;-66
2023/12/20 03:16:29;;;;;;;12.48;2.33;;;;;;;;;;5048297;28;20076;-65
2023/12/20 03:18:54;;;;;;;17.13;2.65;;;;;;;;;;5044477;28;20431;-66
2023/12/20 03:21:20;;;;;;;21.33;3.95;;;;;;;;;;5042786;28;20067;-66
2023/12/20 03:23:47;;;;;;;19.30;3.85;;;;;;;;;;5045110;28;20489;-66
2023/12/20 03:26:13;;;;;;;15.40;2.90;;;;;;;;;;5051065;28;20037;-66
2023/12/20 03:28:39;;;;;;;11.85;2.50;;;;;;;;;;5050228;28;20037;-66
2023/12/20 03:31:05;;;;;;;20.40;3.53;;;;;;;;;;5049245;28;20056;-66
2023/12/20 03:33:31;;;;;;;17.85;3.10;;;;;;;;;;5050175;28;20130;-66
2023/12/20 03:35:57;;;;;;;18.30;2.80;;;;;;;;;;5042719;28;20120;-66
2023/12/20 03:38:26;;;;;;;17.27;3.03;;;;;;;;;;5040997;28;20401;-66
2023/12/20 03:40:52;;;;;;;15.18;3.05;;;;;;;;;;5045615;28;20037;-66
2023/12/20 03:43:18;;;;;;;20.38;3.95;;;;;;;;;;5040474;28;20040;-66
2023/12/20 03:45:44;;;;;;;18.13;3.47;;;;;;;;;;5044643;28;20037;-66
2023/12/20 03:48:10;;;;;;;19.88;3.30;;;;;;;;;;5050745;28;20525;-67
2023/12/20 03:50:36;;;;;;;18.50;3.47;;;;;;;;;;5047771;28;20520;-66
2023/12/20 03:53:03;;;;;;;19.10;3.22;;;;;;;;;;5044330;28;20037;-66
2023/12/20 03:55:29;;;;;;;14.25;3.13;;;;;;;;;;5048723;28;20079;-66
2023/12/20 03:57:55;;;;;;;28.42;4.05;;;;;;;;;;5049643;28;20088;-66
2023/12/20 04:00:21;;;;;;;18.35;3.10;;;;;;;;;;5050676;28;20113;-65
2023/12/20 04:02:47;;;;;;;16.20;2.92;;;;;;;;;;5053233;28;20116;-66
2023/12/20 04:05:13;;;;;;;21.00;4.07;;;;;;;;;;5049866;28;20044;-66
2023/12/20 04:07:39;;;;;;;16.73;3.58;;;;;;;;;;5047346;28;20040;-66
2023/12/20 04:10:06;;;;;;;23.58;3.72;;;;;;;;;;5053667;28;20124;-66
2023/12/20 04:12:32;;;;;;;16.30;3.78;;;;;;;;;;5051609;28;20040;-66
2023/12/20 04:14:58;;;;;;;20.40;4.07;;;;;;;;;;5049693;28;20510;-65
2023/12/20 04:17:24;;;;;;;18.60;3.65;;;;;;;;;;5054603;28;20040;-66
2023/12/20 04:19:50;;;;;;;22.08;3.90;;;;;;;;;;5053452;28;20049;-66
2023/12/20 04:22:17;;;;;;;28.38;4.22;;;;;;;;;;5050390;28;20103;-65
2023/12/20 04:24:43;;;;;;;22.10;3.58;;;;;;;;;;5050686;28;20053;-66
2023/12/20 04:27:09;;;;;;;21.70;4.15;;;;;;;;;;5054448;28;20037;-65
2023/12/20 04:29:35;;;;;;;27.15;4.40;;;;;;;;;;5054042;28;20068;-65
2023/12/20 04:32:01;;;;;;;25.30;4.35;;;;;;;;;;5044440;28;20036;-66
2023/12/20 04:34:27;;;;;;;23.42;4.07;;;;;;;;;;5053669;28;20178;-66
2023/12/20 04:36:54;;;;;;;28.02;4.43;;;;;;;;;;5053919;28;20515;-66
2023/12/20 04:39:20;;;;;;;31.35;4.30;;;;;;;;;;5064673;22;20049;-71
2023/12/20 04:41:47;;;;;;;21.52;3.88;;;;;;;;;;5037228;28;20060;-71
2023/12/20 04:44:13;;;;;;;22.75;4.15;;;;;;;;;;5038238;28;20053;-71
2023/12/20 04:46:39;;;;;;;20.40;3.90;;;;;;;;;;5039997;28;20379;-71
2023/12/20 04:49:05;;;;;;;24.35;4.70;;;;;;;;;;5032541;28;20483;-71
2023/12/20 04:51:34;;;;;;;20.52;3.70;;;;;;;;;;5032490;28;20089;-71
2023/12/20 04:54:00;;;;;;;19.65;4.13;;;;;;;;;;5033831;28;20116;-71
2023/12/20 04:56:26;;;;;;;19.85;4.45;;;;;;;;;;5034226;28;20072;-71
2023/12/20 04:58:52;;;;;;;17.30;3.70;;;;;;;;;;5034099;28;20037;-71
2023/12/20 05:01:18;;;;;;;23.45;4.15;;;;;;;;;;5028209;28;20037;-71
2023/12/20 05:03:44;;;;;;;17.73;3.60;;;;;;;;;;5035613;28;20136;-71
2023/12/20 05:06:10;;;;;;;24.58;4.25;;;;;;;;;;5030821;28;20505;-71
2023/12/20 05:08:36;;;;;;;21.50;3.70;;;;;;;;;;5032783;28;20402;-71
2023/12/20 05:11:02;;;;;;;20.13;3.85;;;;;;;;;;5032804;28;20037;-71
2023/12/20 05:13:28;;;;;;;20.13;4.43;;;;;;;;;;5032287;28;20487;-71
2023/12/20 05:15:54;;;;;;;25.73;4.55;;;;;;;;;;5033323;28;20044;-71
2023/12/20 05:18:21;;;;;;;25.65;4.60;;;;;;;;;;5033588;28;20044;-71
2023/12/20 05:20:47;;;;;;;24.13;4.82;;;;;;;;;;5027616;28;20045;-70
2023/12/20 05:23:13;;;;;;;20.27;3.58;;;;;;;;;;5031983;28;20463;-70
2023/12/20 05:25:40;;;;;;;20.40;3.67;;;;;;;;;;5032414;28;20060;-70
2023/12/20 05:28:06;;;;;;;25.00;4.25;;;;;;;;;;5032647;28;20029;-70
2023/12/20 05:30:32;;;;;;;17.55;4.63;;;;;;;;;;5032463;28;20117;-70
2023/12/20 05:32:58;;;;;;;26.48;4.03;;;;;;;;;;5032560;28;20033;-70
2023/12/20 05:35:24;;;;;;;22.88;4.20;;;;;;;;;;5032516;28;20373;-70
2023/12/20 05:37:50;;;;;;;25.88;3.90;;;;;;;;;;5032334;28;20041;-70
2023/12/20 05:40:16;;;;;;;18.98;4.10;;;;;;;;;;5033254;28;20052;-70
2023/12/20 05:42:43;;;;;;;21.67;3.83;;;;;;;;;;5028560;28;20422;-71
2023/12/20 05:45:09;;;;;;;28.48;4.28;;;;;;;;;;5018644;28;20519;-71
2023/12/20 05:47:35;;;;;;;21.95;3.92;;;;;;;;;;5028511;28;20049;-71
2023/12/20 05:50:01;;;;;;;24.77;4.85;;;;;;;;;;5031058;28;20041;-71
2023/12/20 05:52:27;;;;;;;20.67;4.22;;;;;;;;;;5030476;28;20460;-71
2023/12/20 05:54:53;;;;;;;18.73;4.63;;;;;;;;;;5032180;28;20077;-71
2023/12/20 05:57:19;;;;;;;19.50;4.03;;;;;;;;;;5029066;28;20045;-71
2023/12/20 05:59:45;;;;;;;23.83;4.25;;;;;;;;;;5032554;28;20045;-71
2023/12/20 06:02:11;;;;;;;29.35;4.00;;;;;;;;;;5032255;28;20380;-71
2023/12/20 06:04:37;;;;;;;25.77;4.22;;;;;;;;;;5030638;28;20107;-71
2023/12/20 06:07:03;;;;;;;32.85;4.68;;;;;;;;;;5030515;28;20085;-71
2023/12/20 06:09:29;;;;;;;22.42;4.40;;;;;;;;;;5030700;28;20049;-71
2023/12/20 06:11:55;;;;;;;28.77;4.45;;;;;;;;;;5031806;28;20090;-71
2023/12/20 06:14:21;;;;;;;18.25;3.67;;;;;;;;;;5031302;28;20091;-71
2023/12/20 06:16:47;;;;;;;19.88;3.75;;;;;;;;;;5031793;28;20479;-71
2023/12/20 06:19:13;;;;;;;21.95;3.70;;;;;;;;;;5032186;28;20037;-71
2023/12/20 06:21:39;;;;;;;21.52;4.10;;;;;;;;;;5031682;28;20046;-71
2023/12/20 06:24:05;;;;;;;25.15;4.50;;;;;;;;;;5032334;28;20496;-71
2023/12/20 06:26:31;;;;;;;22.10;3.95;;;;;;;;;;5029095;28;20449;-70
2023/12/20 06:28:57;;;;;;;22.45;4.00;;;;;;;;;;5031576;28;20076;-71
2023/12/20 06:31:23;;;;;;;19.58;3.45;;;;;;;;;;5029832;28;20545;-71
2023/12/20 06:33:57;;;;;;;18.60;4.50;;;;;;;;;;5032816;28;20095;-71
2023/12/20 06:36:23;;;;;;;24.23;3.90;;;;;;;;;;5031173;28;20056;-71
2023/12/20 06:38:49;;;;;;;20.52;4.47;;;;;;;;;;5032068;28;20517;-71
2023/12/20 06:41:16;;;;;;;20.60;4.05;;;;;;;;;;5032456;28;20041;-71
2023/12/20 06:43:42;;;;;;;23.33;4.18;;;;;;;;;;5029321;28;20051;-71
2023/12/20 06:46:08;;;;;;;17.77;3.95;;;;;;;;;;5031925;28;20530;-71
2023/12/20 06:48:35;;;;;;;23.92;3.78;;;;;;;;;;5031023;28;20483;-72
2023/12/20 06:51:04;;;;;;;26.15;4.45;;;;;;;;;;5031552;28;20029;-71
2023/12/20 06:53:30;;;;;;;16.80;3.47;;;;;;;;;;5032331;28;20139;-71
2023/12/20 06:55:56;;;;;;;21.52;3.83;;;;;;;;;;5031642;28;20037;-71
2023/12/20 06:58:23;;;;;;;24.63;4.53;;;;;;;;;;5031737;28;20049;-71
2023/12/20 07:00:49;;;;;;;21.70;4.25;;;;;;;;;;5030818;28;20033;-70
2023/12/20 07:03:15;;;;;;;24.40;4.63;;;;;;;;;;5031643;28;20505;-70
2023/12/20 07:05:41;;;;;;;19.42;4.32;;;;;;;;;;5030530;28;20037;-71
2023/12/20 07:08:07;;;;;;;24.52;4.93;;;;;;;;;;5031451;28;20033;-71
2023/12/20 07:10:33;;;;;;;18.30;3.50;;;;;;;;;;5030846;28;20120;-70
2023/12/20 07:12:59;;;;;;;19.33;4.38;;;;;;;;;;5029209;28;20116;-70
2023/12/20 07:15:26;;;;;;;16.73;3.63;;;;;;;;;;5031305;28;20484;-70
2023/12/20 07:17:52;;;;;;;21.73;4.00;;;;;;;;;;5031657;28;20037;-70
2023/12/20 07:20:18;;;;;;;18.17;3.65;;;;;;;;;;5029339;28;20041;-70
2023/12/20 07:22:44;;;;;;;22.15;3.75;;;;;;;;;;5026042;28;20092;-70
2023/12/20 07:25:10;;;;;;;20.13;4.03;;;;;;;;;;5031515;28;20037;-71
2023/12/20 07:27:36;;;;;;;24.90;3.85;;;;;;;;;;5029677;28;20049;-71
2023/12/20 07:30:02;;;;;;;22.92;3.95;;;;;;;;;;5031310;28;20093;-71
2023/12/20 07:32:28;;;;;;;19.88;3.30;;;;;;;;;;5029903;28;20033;-71
2023/12/20 07:34:54;;;;;;;17.45;4.30;;;;;;;;;;5026947;28;20099;-71
2023/12/20 07:37:20;;;;;;;15.70;3.40;;;;;;;;;;5027295;28;20492;-71
2023/12/20 07:39:47;;;;;;;18.02;3.67;;;;;;;;;;5029639;28;20501;-71
2023/12/20 07:42:13;;;;;;;21.38;3.47;;;;;;;;;;5030215;28;20099;-71
2023/12/20 07:44:39;;;;;;;23.08;3.83;;;;;;;;;;5029374;28;20041;-71
2023/12/20 07:47:05;;;;;;;24.48;4.22;;;;;;;;;;5025538;28;20467;-71
2023/12/20 07:49:31;;;;;;;19.40;3.70;;;;;;;;;;5030523;28;20041;-71
2023/12/20 07:51:57;;;;;;;20.60;3.65;;;;;;;;;;5028352;28;20033;-70
2023/12/20 07:54:23;;;;;;;17.92;5.15;;;;;;;;;;5030514;28;20451;-70
2023/12/20 07:56:49;;;;;;;16.27;3.92;;;;;;;;;;5027973;28;20139;-70
2023/12/20 07:59:15;;;;;;;27.80;4.20;;;;;;;;;;5031289;28;20037;-71
2023/12/20 08:01:42;;;;;;;23.08;4.35;;;;;;;;;;5024268;28;20040;-71
2023/12/20 08:04:08;;;;;;;17.55;3.67;;;;;;;;;;5029238;28;20042;-71
2023/12/20 08:06:34;;;;;;;21.33;3.95;;;;;;;;;;5028701;28;20041;-71
2023/12/20 08:09:00;;;;;;;22.27;4.00;;;;;;;;;;5030169;28;20037;-71
2023/12/20 08:11:26;;;;;;;30.02;5.47;;;;;;;;;;5030670;28;20034;-71
2023/12/20 08:13:52;;;;;;;24.92;4.30;;;;;;;;;;5035986;28;20045;-71
2023/12/20 08:16:18;;;;;;;15.95;3.58;;;;;;;;;;5030267;28;20037;-71
2023/12/20 08:18:44;;;;;;;19.08;4.03;;;;;;;;;;5028808;28;20072;-70
2023/12/20 08:21:11;;;;;;;17.85;3.78;;;;;;;;;;5030342;28;20033;-70
2023/12/20 08:23:37;;;;;;;23.08;4.07;;;;;;;;;;5029043;28;20041;-70
2023/12/20 08:26:07;;;;;;;22.75;4.03;;;;;;;;;;5029763;28;20091;-70
2023/12/20 08:28:33;;;;;;;22.75;3.83;;;;;;;;;;5030083;28;20041;-71
2023/12/20 08:30:59;;;;;;;23.48;4.45;;;;;;;;;;5029203;28;20511;-71
2023/12/20 08:33:25;;;;;;;19.75;4.07;;;;;;;;;;5029963;28;20041;-71
2023/12/20 08:35:51;;;;;;;25.20;4.15;;;;;;;;;;5028949;28;20057;-71
2023/12/20 08:38:17;;;;;;;18.58;4.43;;;;;;;;;;5029188;28;20086;-71
2023/12/20 08:40:43;;;;;;;21.50;3.80;;;;;;;;;;5029891;28;20049;-71
2023/12/20 08:43:09;;;;;;;17.88;4.18;;;;;;;;;;5030285;28;20049;-70
2023/12/20 08:45:35;;;;;;;23.80;4.05;;;;;;;;;;5034005;28;20037;-71
2023/12/20 08:48:01;;;;;;;23.15;4.22;;;;;;;;;;5032051;28;20037;-71
2023/12/20 08:50:27;;;;;;;27.90;4.40;;;;;;;;;;5032800;28;20036;-71
2023/12/20 08:52:53;;;;;;;21.73;3.78;;;;;;;;;;5031138;28;20041;-71
2023/12/20 08:55:20;;;;;;;17.92;4.18;;;;;;;;;;5032506;28;20255;-70
2023/12/20 08:57:46;;;;;;;25.45;3.92;;;;;;;;;;5031815;28;20402;-70
2023/12/20 09:00:12;;;;;;;24.17;4.53;;;;;;;;;;5034374;28;20503;-71
2023/12/20 09:02:38;;;;;;;22.42;3.90;;;;;;;;;;5033383;28;20048;-71
2023/12/20 09:05:05;;;;;;;24.42;4.05;;;;;;;;;;5028052;28;20112;-71
2023/12/20 09:07:31;;;;;;;20.10;4.40;;;;;;;;;;5032709;28;20042;-70
2023/12/20 09:09:58;;;;;;;24.63;4.43;;;;;;;;;;5032608;28;20045;-70
2023/12/20 09:12:24;;;;;;;28.10;4.50;;;;;;;;;;5032726;28;20045;-70
2023/12/20 09:14:51;;;;;;;23.27;4.03;;;;;;;;;;5032526;28;20044;-70
2023/12/20 09:17:17;;;;;;;19.80;3.60;;;;;;;;;;5033004;28;20041;-71
2023/12/20 09:19:46;;;;;;;18.55;3.88;;;;;;;;;;5030536;28;20056;-71
2023/12/20 09:22:12;;;;;;;20.08;4.00;;;;;;;;;;5033243;28;20130;-71
2023/12/20 09:24:38;;;;;;;17.65;3.85;;;;;;;;;;5030688;28;20053;-71
2023/12/20 09:27:05;;;;;;;18.95;4.35;;;;;;;;;;5028944;28;20034;-70
2023/12/20 09:29:31;;;;;;;17.55;4.22;;;;;;;;;;5030987;28;20041;-70
2023/12/20 09:31:57;;;;;;;17.67;3.58;;;;;;;;;;5023459;28;20096;-70
2023/12/20 09:34:24;;;;;;;22.98;4.10;;;;;;;;;;5028985;28;20496;-70
2023/12/20 09:36:50;;;;;;;23.15;4.25;;;;;;;;;;5032480;28;20410;-70
2023/12/20 09:39:19;;;;;;;20.70;3.33;;;;;;;;;;5022206;28;20121;-70
2023/12/20 09:41:46;;;;;;;25.83;4.68;;;;;;;;;;5029196;28;20041;-71
2023/12/20 09:44:17;;;;;;;18.13;3.63;;;;;;;;;;5031668;28;20087;-71
2023/12/20 09:46:44;;;;;;;25.00;4.47;;;;;;;;;;5027177;28;20541;-71
2023/12/20 09:49:11;;;;;;;22.77;4.72;;;;;;;;;;5032310;28;20037;-71
2023/12/20 09:51:37;;;;;;;20.77;4.10;;;;;;;;;;5029262;28;20607;-71
2023/12/20 09:54:04;;;;;;;19.77;3.45;;;;;;;;;;5027724;28;20120;-71
2023/12/20 09:56:30;;;;;;;12.90;2.47;;;;;;;;;;5012014;28;20052;-71
2023/12/20 09:58:57;;;;;;;12.40;2.13;;;;;;;;;;5029837;28;20041;-71
2023/12/20 10:01:24;;;;;;;12.95;2.15;;;;;;;;;;5028705;28;20044;-70
2023/12/20 10:03:51;;;;;;;9.90;2.08;;;;;;;;;;5032386;28;20049;-70
2023/12/20 10:06:17;;;;;;;10.40;1.83;;;;;;;;;;5031470;28;20041;-70
2023/12/20 10:08:43;;;;;;;9.45;1.90;;;;;;;;;;5027586;28;20049;-71
2023/12/20 10:11:09;;;;;;;8.57;1.67;;;;;;;;;;5029860;28;20034;-70
2023/12/20 10:13:40;;;;;;;10.95;1.15;;;;;;;;;;5023537;28;20394;-70
2023/12/20 10:16:07;;;;;;;6.85;1.50;;;;;;;;;;5028905;28;20038;-69
2023/12/20 10:18:33;;;;;;;8.13;1.33;;;;;;;;;;5029077;28;20124;-69
2023/12/20 10:20:59;;;;;;;4.70;1.27;;;;;;;;;;5029124;28;20096;-69
2023/12/20 10:23:25;;;;;;;8.02;1.83;;;;;;;;;;5026717;28;20491;-70
2023/12/20 10:25:58;;;;;;;7.93;1.52;;;;;;;;;;5027819;28;20042;-70
2023/12/20 10:28:27;;;;;;;3.80;1.20;;;;;;;;;;5028612;28;20346;-70
2023/12/20 10:30:53;;;;;;;2.47;0.80;;;;;;;;;;5031374;28;20076;-70
2023/12/20 10:33:26;;;;;;;12.52;1.77;;;;;;;;;;5031818;28;20424;-70
2023/12/20 10:35:53;;;;;;;13.05;1.90;;;;;;;;;;5027479;28;20441;-71
2023/12/20 10:38:19;;;;;;;11.95;2.05;;;;;;;;;;5059010;22;20491;-72
2023/12/20 10:40:46;;;;;;;8.70;1.45;;;;;;;;;;5066342;28;20486;-72
2023/12/20 10:43:12;;;;;;;8.13;1.35;;;;;;;;;;5067406;28;20029;-72
2023/12/20 10:45:38;;;;;;;3.80;1.10;;;;;;;;;;5070935;28;20078;-72
2023/12/20 10:48:04;;;;;;;5.60;1.27;;;;;;;;;;5072229;28;20033;-72
2023/12/20 10:50:31;;;;;;;9.20;1.58;;;;;;;;;;5071739;28;20032;-72
2023/12/20 10:52:58;;;;;;;6.70;1.20;;;;;;;;;;5069641;28;20450;-72
2023/12/20 10:55:24;;;;;;;10.90;1.42;;;;;;;;;;5071066;28;20040;-72
2023/12/20 10:57:59;;;;;;;5.82;1.48;;;;;;;;;;5065233;28;20132;-72
2023/12/20 11:00:25;;;;;;;10.05;1.25;;;;;;;;;;5071815;28;20045;-72
2023/12/20 11:02:52;;;;;;;6.35;1.23;;;;;;;;;;5069813;28;20045;-72
2023/12/20 11:05:27;;;;;;;6.40;1.35;;;;;;;;;;5071016;28;20040;-72
2023/12/20 11:07:59;;;;;;;5.15;1.48;;;;;;;;;;5065297;28;20071;-72
2023/12/20 11:10:32;;;;;;;9.77;1.60;;;;;;;;;;5063942;28;20037;-72
2023/12/20 11:13:01;;;;;;;9.30;1.70;;;;;;;;;;5067798;28;20493;-72
2023/12/20 11:15:28;;;;;;;7.63;1.48;;;;;;;;;;5068309;28;20044;-72
2023/12/20 11:17:57;;;;;;;7.20;1.33;;;;;;;;;;5064240;28;20127;-72
2023/12/20 11:20:24;;;;;;;9.93;1.90;;;;;;;;;;5059413;28;20487;-72
2023/12/20 11:22:53;;;;;;;8.57;1.27;;;;;;;;;;5059040;28;20517;-72
2023/12/20 11:25:20;;;;;;;6.95;1.40;;;;;;;;;;5060648;28;20059;-72
2023/12/20 11:28:06;;;;;;;10.23;1.90;;;;;;;;;;5067244;28;20120;-72
2023/12/20 11:30:41;;;;;;;9.25;1.65;;;;;;;;;;5066682;28;20120;-72
2023/12/20 11:33:08;;;;;;;10.27;1.70;;;;;;;;;;5061703;28;20033;-72
2023/12/20 11:35:36;;;;;;;11.55;1.73;;;;;;;;;;5061888;28;20506;-72
2023/12/20 11:38:02;;;;;;;12.32;1.90;;;;;;;;;;5065824;28;20564;-72
2023/12/20 11:40:28;;;;;;;11.63;1.98;;;;;;;;;;5063130;28;20036;-72
2023/12/20 11:42:54;;;;;;;10.20;2.50;;;;;;;;;;5068574;28;20401;-72
2023/12/20 11:45:24;;;;;;;10.63;1.90;;;;;;;;;;5064343;28;20060;-72
2023/12/20 11:47:51;;;;;;;10.90;1.50;;;;;;;;;;5059048;28;20518;-72
2023/12/20 11:50:18;;;;;;;11.35;1.80;;;;;;;;;;5060387;28;20290;-72
2023/12/20 11:52:44;;;;;;;10.10;2.03;;;;;;;;;;5071316;28;20509;-72
2023/12/20 11:55:10;;;;;;;12.00;1.85;;;;;;;;;;5070829;28;20040;-72
2023/12/20 11:57:36;;;;;;;9.45;1.90;;;;;;;;;;5070342;28;20123;-72
2023/12/20 12:00:03;;;;;;;10.55;1.52;;;;;;;;;;5070834;28;20045;-72
2023/12/20 12:02:29;;;;;;;11.15;1.70;;;;;;;;;;5070743;28;20494;-72
2023/12/20 12:04:56;;;;;;;8.98;1.58;;;;;;;;;;5069574;28;20056;-72
2023/12/20 12:07:22;;;;;;;15.25;2.05;;;;;;;;;;5067019;28;20178;-72
2023/12/20 12:09:48;;;;;;;6.47;1.58;;;;;;;;;;5071020;28;20093;-72
2023/12/20 12:12:14;;;;;;;10.70;1.70;;;;;;;;;;5070426;28;20044;-72
2023/12/20 12:14:40;;;;;;;13.23;1.80;;;;;;;;;;5071637;28;20044;-72
2023/12/20 12:17:13;;;;;;;9.65;1.80;;;;;;;;;;5071529;28;20124;-72
2023/12/20 12:19:39;;;;;;;9.82;1.60;;;;;;;;;;5074582;28;20041;-72
2023/12/20 12:22:08;;;;;;;8.55;1.80;;;;;;;;;;5074792;28;20037;-72
2023/12/20 12:24:34;;;;;;;12.77;1.98;;;;;;;;;;5074255;28;20051;-72
2023/12/20 12:27:00;;;;;;;10.75;1.70;;;;;;;;;;5072735;28;20402;-72
2023/12/20 12:29:26;;;;;;;8.38;1.50;;;;;;;;;;5073958;28;20041;-72
2023/12/20 12:31:52;;;;;;;11.48;2.47;;;;;;;;;;5074260;28;20072;-72
2023/12/20 12:34:18;;;;;;;11.88;2.05;;;;;;;;;;5073778;28;20040;-72
2023/12/20 12:36:45;;;;;;;9.50;1.58;;;;;;;;;;5074110;28;20040;-72
2023/12/20 12:39:17;;;;;;;10.70;1.60;;;;;;;;;;5074358;28;20047;-72
2023/12/20 12:41:43;;;;;;;7.80;1.40;;;;;;;;;;5070146;28;20045;-72
2023/12/20 12:44:09;;;;;;;9.15;1.85;;;;;;;;;;5073917;28;20040;-72
2023/12/20 12:46:35;;;;;;;9.70;1.80;;;;;;;;;;5074075;28;20056;-72
2023/12/20 12:49:01;;;;;;;11.32;1.80;;;;;;;;;;5074571;28;20032;-72
2023/12/20 12:51:27;;;;;;;11.10;2.00;;;;;;;;;;5073912;28;20037;-72
2023/12/20 12:53:53;;;;;;;10.00;1.65;;;;;;;;;;5073406;28;20561;-72
2023/12/20 12:56:20;;;;;;;10.43;1.75;;;;;;;;;;5073131;28;20032;-72
2023/12/20 12:58:47;;;;;;;9.40;1.70;;;;;;;;;;5074110;28;20047;-72
2023/12/20 13:01:13;;;;;;;7.00;1.30;;;;;;;;;;5073594;28;20048;-72
2023/12/20 13:03:39;;;;;;;8.10;1.63;;;;;;;;;;5073456;28;20044;-72
2023/12/20 13:06:08;;;;;;;7.45;1.55;;;;;;;;;;5073983;28;20056;-72
2023/12/20 13:08:35;;;;;;;8.25;1.60;;;;;;;;;;5073649;28;20036;-72
2023/12/20 13:11:04;;;;;;;10.23;1.77;;;;;;;;;;5073667;28;20039;-72
2023/12/20 13:13:30;;;;;;;8.57;2.00;;;;;;;;;;5071960;28;20054;-72
2023/12/20 13:15:56;;;;;;;11.38;2.00;;;;;;;;;;5074195;28;20103;-72
2023/12/20 13:18:23;;;;;;;9.77;1.60;;;;;;;;;;5073455;28;20056;-72
2023/12/20 13:20:49;;;;;;;8.40;1.50;;;;;;;;;;5073629;28;20044;-72
2023/12/20 13:23:18;;;;;;;11.38;1.77;;;;;;;;;;5073673;28;20111;-72
2023/12/20 13:25:45;;;;;;;11.88;2.00;;;;;;;;;;5073253;28;20044;-72
2023/12/20 13:28:11;;;;;;;9.10;1.95;;;;;;;;;;5071918;28;20059;-72
2023/12/20 13:30:38;;;;;;;9.38;1.60;;;;;;;;;;5073714;28;20094;-72
2023/12/20 13:33:05;;;;;;;8.13;1.88;;;;;;;;;;5073437;28;20068;-72
2023/12/20 13:35:31;;;;;;;10.20;1.80;;;;;;;;;;5073584;28;20045;-72
2023/12/20 13:37:57;;;;;;;11.10;1.33;;;;;;;;;;5073174;28;20115;-72
2023/12/20 13:40:23;;;;;;;6.80;1.85;;;;;;;;;;5073201;28;20048;-72
2023/12/20 13:42:49;;;;;;;8.80;1.85;;;;;;;;;;5073206;28;20043;-72
2023/12/20 13:45:15;;;;;;;8.85;1.98;;;;;;;;;;5072793;28;20498;-72
2023/12/20 13:47:42;;;;;;;8.50;1.95;;;;;;;;;;5072313;28;20457;-72
2023/12/20 13:50:08;;;;;;;10.85;1.52;;;;;;;;;;5072995;28;20119;-72
2023/12/20 13:52:34;;;;;;;7.60;1.60;;;;;;;;;;5072742;28;20115;-72
2023/12/20 13:55:00;;;;;;;8.30;1.55;;;;;;;;;;5072178;28;20066;-72
2023/12/20 13:57:26;;;;;;;7.47;1.88;;;;;;;;;;5072902;28;20084;-72
2023/12/20 13:59:52;;;;;;;12.52;2.25;;;;;;;;;;5072173;28;20452;-72
2023/12/20 14:02:18;;;;;;;7.35;1.45;;;;;;;;;;5072919;28;20051;-72
2023/12/20 14:04:44;;;;;;;9.93;1.85;;;;;;;;;;5073149;28;20443;-72
2023/12/20 14:07:10;;;;;;;7.90;1.83;;;;;;;;;;5072598;28;20037;-72
2023/12/20 14:09:36;;;;;;;9.88;1.98;;;;;;;;;;5071775;28;20057;-72
2023/12/20 14:12:02;;;;;;;9.55;1.70;;;;;;;;;;5072477;28;20102;-73
2023/12/20 14:14:28;;;;;;;7.90;1.25;;;;;;;;;;5073067;28;20090;-73
2023/12/20 14:16:54;;;;;;;9.20;1.27;;;;;;;;;;5070633;28;20044;-73
2023/12/20 14:19:20;;;;;;;10.60;1.30;;;;;;;;;;5069573;28;20041;-73
2023/12/20 14:21:46;;;;;;;7.10;1.35;;;;;;;;;;5070799;28;20127;-73
2023/12/20 14:24:15;;;;;;;10.98;1.55;;;;;;;;;;5072546;28;20557;-73
2023/12/20 14:26:41;;;;;;;8.98;1.40;;;;;;;;;;5072004;28;20119;-73
2023/12/20 14:29:08;;;;;;;9.80;1.80;;;;;;;;;;5072677;28;20036;-73